EmailTwitter


Surface observations / Quebec / CYUL (71627)

Regions: Quebec | Canada | USA | Europe | France | UK | Elsewhere
Station
Display
Info & Location for CYUL (71627) | Help decoding METAR

Weather Conditions observed on 2019/04/25 at 05:00 UTC at MONTREAL INTL A, QB (CYUL)

Sky conditions: partly cloudy.

Temperature: 6.0 Celsius.

Dewpoint: 3.0 Celsius.

Relative Humidity: 81%

Winds: East at 7 km/h or 4 knots.

Mean Sea level Pressure: 101.30 kilopascals.

Altimeter Setting (QNH): 101.29 kilopascals or 29.91 inches of mercury.

Horizontal visibility: 15.00 statute miles or 24.00 kilometers.

Height of the Ceiling: 1829 metres ( 6000 feet ).

Coded METAR:

CYUL 250500Z 10004KT 15SM SCT030 SCT035 BKN060 06/03 A2991 RMK SC3SC1SC3 SLP130=